createdAt,value
2019-03-12T00:02:34.960Z,76.62
2019-03-12T00:07:29.555Z,76.96
2019-03-12T00:12:24.123Z,77.01
2019-03-12T00:17:18.873Z,77.45
2019-03-12T00:22:13.470Z,77.51
2019-03-12T00:27:08.059Z,77.21
2019-03-12T00:32:02.702Z,77.08
2019-03-12T00:36:57.343Z,76.99
2019-03-12T00:41:51.933Z,76.44
2019-03-12T00:46:46.677Z,75.77
2019-03-12T00:51:41.271Z,75.22
2019-03-12T00:56:35.860Z,74.96
2019-03-12T01:01:30.447Z,74.72
2019-03-12T01:06:25.018Z,74.84
2019-03-12T01:11:19.672Z,75.07
2019-03-12T01:16:14.268Z,75.01
2019-03-12T01:21:08.929Z,75.66
2019-03-12T01:26:03.532Z,76.17
2019-03-12T01:30:58.087Z,75.95
2019-03-12T01:35:52.679Z,77.51
2019-03-12T01:40:47.252Z,78.00
2019-03-12T01:45:41.833Z,78.38
2019-03-12T01:50:36.437Z,77.99
2019-03-12T01:55:30.983Z,77.93
2019-03-12T02:00:25.583Z,77.40
2019-03-12T02:05:20.231Z,75.01
2019-03-12T02:10:15.716Z,73.95
2019-03-12T02:15:16.249Z,74.38
2019-03-12T02:20:17.338Z,75.05
2019-03-12T02:25:16.221Z,75.29
2019-03-12T02:30:17.950Z,76.53
2019-03-12T02:35:12.859Z,76.78
2019-03-12T02:40:13.519Z,77.18
2019-03-12T02:45:12.671Z,77.25
2019-03-12T02:50:12.119Z,77.59
2019-03-12T02:55:09.076Z,76.37
2019-03-12T03:00:06.221Z,76.08
2019-03-12T03:05:00.800Z,75.35
2019-03-12T03:09:55.453Z,75.72
2019-03-12T03:14:50.024Z,74.74
2019-03-12T03:19:44.634Z,74.87
2019-03-12T03:24:39.301Z,74.99
2019-03-12T03:29:33.879Z,74.44
2019-03-12T03:34:29.178Z,74.52
2019-03-12T03:39:23.829Z,74.19
2019-03-12T03:44:18.633Z,74.07
2019-03-12T03:49:13.230Z,74.86
2019-03-12T03:54:07.811Z,75.13
2019-03-12T03:59:02.476Z,74.96
2019-03-12T04:03:57.239Z,76.54
2019-03-12T04:08:51.826Z,75.85
2019-03-12T04:13:46.424Z,77.35
2019-03-12T04:18:41.030Z,78.28
2019-03-12T04:23:35.619Z,78.54
2019-03-12T04:28:30.192Z,78.68
2019-03-12T04:33:54.786Z,77.86
2019-03-12T04:38:49.357Z,76.62
2019-03-12T04:43:43.948Z,76.15
2019-03-12T04:48:38.526Z,76.73
2019-03-12T04:53:33.125Z,76.97
2019-03-12T04:58:27.698Z,76.09
2019-03-12T05:03:22.273Z,74.81
2019-03-12T05:08:16.847Z,75.36
2019-03-12T05:13:11.440Z,75.51
2019-03-12T05:18:06.024Z,74.77
2019-03-12T05:23:00.644Z,74.40
2019-03-12T05:27:55.217Z,74.56
2019-03-12T05:32:49.822Z,74.37
2019-03-12T05:37:44.801Z,74.07
2019-03-12T05:42:39.550Z,74.03
2019-03-12T05:47:34.135Z,74.12
2019-03-12T05:52:28.741Z,73.94
2019-03-12T05:57:23.296Z,74.16
2019-03-12T06:02:17.904Z,74.51
2019-03-12T06:07:12.487Z,74.38
2019-03-12T06:12:07.097Z,73.21
2019-03-12T06:17:01.677Z,72.46
2019-03-12T06:21:56.277Z,68.98
2019-03-12T06:26:50.853Z,65.68
2019-03-12T06:31:52.719Z,62.25
2019-03-12T06:36:51.652Z,60.64
2019-03-12T06:41:53.336Z,58.96
2019-03-12T06:47:03.191Z,58.30
2019-03-12T06:52:05.105Z,58.39
2019-03-12T06:57:02.152Z,58.94
2019-03-12T07:02:14.447Z,58.35
2019-03-12T07:07:26.371Z,59.11
2019-03-12T07:12:38.298Z,58.98
2019-03-12T07:17:32.624Z,59.76
2019-03-12T07:22:32.943Z,60.38
2019-03-12T07:27:29.217Z,61.09
2019-03-12T07:32:28.115Z,59.74
2019-03-12T07:37:39.166Z,60.33
2019-03-12T07:42:54.398Z,59.98
2019-03-12T07:47:56.431Z,60.03
2019-03-12T07:52:51.115Z,59.41
2019-03-12T07:57:47.802Z,59.70
2019-03-12T08:02:52.530Z,59.18
2019-03-12T08:08:06.120Z,58.16
2019-03-12T08:13:28.794Z,58.69
2019-03-12T08:18:44.826Z,58.46
2019-03-12T08:23:44.263Z,57.31
2019-03-12T08:28:40.548Z,56.05
2019-03-12T08:33:50.998Z,55.66
2019-03-12T08:38:52.918Z,53.35
2019-03-12T08:43:50.424Z,52.34
2019-03-12T08:48:49.812Z,52.30
2019-03-12T08:54:00.972Z,51.46
2019-03-12T08:59:00.214Z,52.32
2019-03-12T09:03:59.499Z,50.91
2019-03-12T09:08:59.684Z,50.89
2019-03-12T09:14:12.083Z,50.01
2019-03-12T09:19:19.350Z,50.10
2019-03-12T09:24:15.580Z,49.18
2019-03-12T09:29:17.792Z,48.37
2019-03-12T09:34:14.478Z,48.37
2019-03-12T09:39:08.888Z,46.15
2019-03-12T09:44:08.031Z,46.80
2019-03-12T09:49:08.060Z,45.16
2019-03-12T09:54:21.455Z,45.48
2019-03-12T09:59:31.723Z,45.03
2019-03-12T10:04:31.013Z,45.26
2019-03-12T10:09:33.334Z,46.48
2019-03-12T10:14:28.276Z,44.88
2019-03-12T10:19:42.801Z,45.33
2019-03-12T10:24:39.032Z,46.49
2019-03-12T10:29:46.710Z,45.42
2019-03-12T10:34:58.623Z,45.02
2019-03-12T10:40:01.633Z,42.62
2019-03-12T10:45:15.475Z,45.43
2019-03-12T10:50:10.695Z,48.73
2019-03-12T10:55:12.942Z,48.86
2019-03-12T11:00:07.497Z,48.34
2019-03-12T11:05:02.104Z,47.47
2019-03-12T11:09:56.837Z,47.16
2019-03-12T11:14:51.520Z,45.91
2019-03-12T11:19:46.114Z,44.41
2019-03-12T11:24:40.845Z,43.99
2019-03-12T11:29:35.434Z,43.25
2019-03-12T11:34:30.024Z,43.11
2019-03-12T11:39:24.601Z,42.60
2019-03-12T11:44:20.301Z,43.54
2019-03-12T11:49:15.090Z,41.75
2019-03-12T11:54:10.290Z,41.81
2019-03-12T11:59:05.345Z,41.27
2019-03-12T12:04:00.328Z,40.75
2019-03-12T12:08:54.952Z,41.14
2019-03-12T12:13:49.592Z,39.19
2019-03-12T12:18:44.305Z,37.96
2019-03-12T12:23:39.571Z,39.00
2019-03-12T12:28:34.130Z,37.78
2019-03-12T12:33:28.798Z,39.06
2019-03-12T12:38:27.795Z,39.16
2019-03-12T12:43:22.918Z,37.92
2019-03-12T12:48:18.052Z,38.32
2019-03-12T12:53:12.774Z,38.26
2019-03-12T12:58:09.020Z,37.87
2019-03-12T13:03:04.810Z,37.15
2019-03-12T13:07:59.715Z,36.69
2019-03-12T13:12:54.474Z,36.25
2019-03-12T13:17:49.038Z,37.43
2019-03-12T13:22:43.802Z,36.89
2019-03-12T13:27:42.450Z,36.49
2019-03-12T13:32:34.921Z,35.77
2019-03-12T13:37:29.684Z,35.58
2019-03-12T13:42:24.538Z,35.41
2019-03-12T13:47:19.146Z,35.47
2019-03-12T13:52:14.185Z,35.90
2019-03-12T13:57:08.795Z,35.96
2019-03-12T14:02:05.055Z,35.57
2019-03-12T14:06:59.894Z,35.83
2019-03-12T14:11:54.701Z,36.41
2019-03-12T14:16:49.432Z,36.08
2019-03-12T14:21:44.408Z,35.19
2019-03-12T14:26:39.464Z,35.27
2019-03-12T14:31:34.396Z,35.36
2019-03-12T14:36:29.578Z,35.84
2019-03-12T14:41:24.588Z,34.61
2019-03-12T14:46:19.812Z,34.64
2019-03-12T14:56:42.320Z,34.48
2019-03-12T15:01:37.010Z,33.48
2019-03-12T15:06:31.673Z,33.59
2019-03-12T15:11:26.416Z,34.04
2019-03-12T15:16:21.042Z,33.74
2019-03-12T15:21:16.502Z,33.76
2019-03-12T15:26:11.287Z,32.99
2019-03-12T15:31:06.162Z,33.25
2019-03-12T15:36:00.943Z,33.44
2019-03-12T15:40:55.789Z,32.92
2019-03-12T15:45:50.481Z,32.79
2019-03-12T15:50:45.069Z,33.11
2019-03-12T15:55:39.713Z,33.60
2019-03-12T16:00:34.310Z,33.37
2019-03-12T16:05:29.205Z,33.13
2019-03-12T16:10:23.995Z,33.92
2019-03-12T16:15:19.525Z,33.36
2019-03-12T16:20:17.500Z,33.62
2019-03-12T16:25:12.494Z,32.61
2019-03-12T16:30:13.828Z,32.63
2019-03-12T16:35:10.338Z,33.75
2019-03-12T16:40:16.658Z,34.31
2019-03-12T16:45:17.414Z,34.79
2019-03-12T16:50:18.785Z,34.99
2019-03-12T16:55:15.468Z,35.48
2019-03-12T17:00:23.530Z,35.12
2019-03-12T17:05:18.298Z,35.87
2019-03-12T17:10:18.715Z,36.80
2019-03-12T17:15:28.075Z,37.36
2019-03-12T17:20:26.277Z,37.85
2019-03-12T17:25:21.579Z,38.38
2019-03-12T17:30:27.675Z,39.07
2019-03-12T17:35:36.675Z,39.28
2019-03-12T17:40:31.433Z,40.37
2019-03-12T17:45:26.437Z,41.06
2019-03-12T17:50:21.121Z,41.64
2019-03-12T17:55:16.199Z,41.35
2019-03-12T18:00:32.011Z,42.19
2019-03-12T18:05:31.894Z,43.25
2019-03-12T18:10:31.301Z,43.33
2019-03-12T18:15:26.272Z,43.79
2019-03-12T18:20:23.835Z,44.79
2019-03-12T18:25:29.284Z,45.78
2019-03-12T18:30:23.854Z,46.27
2019-03-12T18:35:18.526Z,46.80
2019-03-12T18:40:29.028Z,46.89
2019-03-12T18:45:34.786Z,46.45
2019-03-12T18:50:29.360Z,46.06
2019-03-12T18:55:38.480Z,46.26
2019-03-12T19:00:38.396Z,46.30
2019-03-12T19:05:32.993Z,44.30
2019-03-12T19:10:27.765Z,43.08
2019-03-12T19:15:22.495Z,42.96
2019-03-12T19:20:19.086Z,44.46
2019-03-12T19:25:17.083Z,45.90
2019-03-12T19:30:15.930Z,46.88
2019-03-12T19:35:15.303Z,45.75
2019-03-12T19:40:23.617Z,45.33
2019-03-12T19:45:18.255Z,47.12
2019-03-12T19:50:19.413Z,47.61
2019-03-12T19:55:18.499Z,42.84
2019-03-12T20:00:17.100Z,45.70
2019-03-12T20:05:12.911Z,48.84
2019-03-12T20:10:41.718Z,47.05
2019-03-12T20:16:02.642Z,48.61
2019-03-12T20:21:25.582Z,47.89
2019-03-12T20:26:47.298Z,46.72
2019-03-12T20:32:13.253Z,46.16
2019-03-12T20:37:35.689Z,45.21
2019-03-12T20:43:08.836Z,50.08
2019-03-12T20:48:41.466Z,52.06
2019-03-12T20:54:15.142Z,52.33
2019-03-12T20:59:47.823Z,53.40
2019-03-12T21:05:35.249Z,54.38
2019-03-12T21:11:22.864Z,55.12
2019-03-12T21:16:52.859Z,53.41
2019-03-12T21:22:03.540Z,50.67
2019-03-12T21:27:27.752Z,48.97
2019-03-12T21:32:22.397Z,47.22
2019-03-12T21:37:17.695Z,43.58
2019-03-12T21:42:12.509Z,43.05
2019-03-12T21:47:07.331Z,42.80
2019-03-12T21:52:01.897Z,42.17
2019-03-12T21:56:56.552Z,42.28
2019-03-12T22:01:51.288Z,42.49
2019-03-12T22:06:46.044Z,42.63
2019-03-12T22:11:40.613Z,42.75
2019-03-12T22:16:35.208Z,42.70
2019-03-12T22:21:43.277Z,42.53
2019-03-12T22:26:37.844Z,42.40
2019-03-12T22:31:32.510Z,42.39
2019-03-12T22:36:27.086Z,42.55
2019-03-12T22:41:21.666Z,43.09
2019-03-12T22:46:16.234Z,43.13
2019-03-12T22:51:10.812Z,43.04
2019-03-12T22:56:05.460Z,43.03
2019-03-12T23:01:00.120Z,42.80
2019-03-12T23:05:54.682Z,42.63
2019-03-12T23:10:49.446Z,42.88
2019-03-12T23:15:44.018Z,42.35
2019-03-12T23:20:38.607Z,42.83
2019-03-12T23:25:33.248Z,42.98
2019-03-12T23:30:28.906Z,43.25
2019-03-12T23:35:23.692Z,42.88
2019-03-12T23:40:39.138Z,42.41
2019-03-12T23:45:33.772Z,42.19
2019-03-12T23:50:28.977Z,43.09
2019-03-12T23:55:23.784Z,43.17
